sensor_id;sensor_type;location;lat;lon;timestamp;temperature;humidity
27492;DHT22;14927;51.210;6.838;2024-01-07T00:01:01;8.50;66.40
27492;DHT22;14927;51.210;6.838;2024-01-07T00:03:46;8.50;66.40
27492;DHT22;14927;51.210;6.838;2024-01-07T00:06:30;8.50;66.40
27492;DHT22;14927;51.210;6.838;2024-01-07T00:09:16;8.50;66.40
27492;DHT22;14927;51.210;6.838;2024-01-07T00:12:00;8.50;66.40
27492;DHT22;14927;51.210;6.838;2024-01-07T00:14:45;8.70;66.60
27492;DHT22;14927;51.210;6.838;2024-01-07T00:17:29;8.50;66.40
27492;DHT22;14927;51.210;6.838;2024-01-07T00:20:14;8.60;66.50
27492;DHT22;14927;51.210;6.838;2024-01-07T00:22:58;8.50;66.40
27492;DHT22;14927;51.210;6.838;2024-01-07T00:25:43;8.50;66.40
27492;DHT22;14927;51.210;6.838;2024-01-07T00:28:28;8.80;66.60
27492;DHT22;14927;51.210;6.838;2024-01-07T00:31:13;8.50;66.30
27492;DHT22;14927;51.210;6.838;2024-01-07T00:33:57;8.60;66.40
27492;DHT22;14927;51.210;6.838;2024-01-07T00:36:41;8.70;66.40
27492;DHT22;14927;51.210;6.838;2024-01-07T00:39:26;8.50;66.20
27492;DHT22;14927;51.210;6.838;2024-01-07T00:42:10;8.60;66.30
27492;DHT22;14927;51.210;6.838;2024-01-07T00:44:55;8.60;66.30
27492;DHT22;14927;51.210;6.838;2024-01-07T00:47:39;8.50;66.30
27492;DHT22;14927;51.210;6.838;2024-01-07T00:50:25;8.60;66.40
27492;DHT22;14927;51.210;6.838;2024-01-07T00:53:09;8.60;66.30
27492;DHT22;14927;51.210;6.838;2024-01-07T00:55:54;8.60;66.30
27492;DHT22;14927;51.210;6.838;2024-01-07T00:58:38;8.60;66.40
27492;DHT22;14927;51.210;6.838;2024-01-07T01:01:23;8.60;66.40
27492;DHT22;14927;51.210;6.838;2024-01-07T01:04:08;8.60;66.40
27492;DHT22;14927;51.210;6.838;2024-01-07T01:06:52;8.70;66.40
27492;DHT22;14927;51.210;6.838;2024-01-07T01:09:37;8.70;66.40
27492;DHT22;14927;51.210;6.838;2024-01-07T01:12:22;8.60;66.30
27492;DHT22;14927;51.210;6.838;2024-01-07T01:15:06;8.50;66.30
27492;DHT22;14927;51.210;6.838;2024-01-07T01:17:51;8.50;66.20
27492;DHT22;14927;51.210;6.838;2024-01-07T01:20:36;8.50;66.20
27492;DHT22;14927;51.210;6.838;2024-01-07T01:23:21;8.70;66.40
27492;DHT22;14927;51.210;6.838;2024-01-07T01:26:05;8.50;66.40
27492;DHT22;14927;51.210;6.838;2024-01-07T01:28:50;8.40;66.30
27492;DHT22;14927;51.210;6.838;2024-01-07T01:31:34;8.40;66.40
27492;DHT22;14927;51.210;6.838;2024-01-07T01:34:19;8.40;66.40
27492;DHT22;14927;51.210;6.838;2024-01-07T01:37:04;8.50;66.50
27492;DHT22;14927;51.210;6.838;2024-01-07T01:39:48;8.40;66.40
27492;DHT22;14927;51.210;6.838;2024-01-07T01:42:33;8.50;66.40
27492;DHT22;14927;51.210;6.838;2024-01-07T01:45:18;8.50;66.30
27492;DHT22;14927;51.210;6.838;2024-01-07T01:48:03;8.40;66.30
27492;DHT22;14927;51.210;6.838;2024-01-07T01:50:48;8.40;66.30
27492;DHT22;14927;51.210;6.838;2024-01-07T01:53:33;8.40;66.30
27492;DHT22;14927;51.210;6.838;2024-01-07T01:56:18;8.40;66.30
27492;DHT22;14927;51.210;6.838;2024-01-07T01:59:05;8.40;66.20
27492;DHT22;14927;51.210;6.838;2024-01-07T02:01:49;8.40;66.30
27492;DHT22;14927;51.210;6.838;2024-01-07T02:04:34;8.40;66.30
27492;DHT22;14927;51.210;6.838;2024-01-07T02:07:19;8.40;66.30
27492;DHT22;14927;51.210;6.838;2024-01-07T02:10:04;8.40;66.20
27492;DHT22;14927;51.210;6.838;2024-01-07T02:12:49;8.40;66.10
27492;DHT22;14927;51.210;6.838;2024-01-07T02:15:33;8.40;66.00
27492;DHT22;14927;51.210;6.838;2024-01-07T02:18:19;8.40;65.90
27492;DHT22;14927;51.210;6.838;2024-01-07T02:21:03;8.30;65.70
27492;DHT22;14927;51.210;6.838;2024-01-07T02:23:48;8.30;65.70
27492;DHT22;14927;51.210;6.838;2024-01-07T02:26:32;8.30;65.70
27492;DHT22;14927;51.210;6.838;2024-01-07T02:29:17;8.40;65.80
27492;DHT22;14927;51.210;6.838;2024-01-07T02:32:01;8.20;65.80
27492;DHT22;14927;51.210;6.838;2024-01-07T02:34:46;8.30;65.80
27492;DHT22;14927;51.210;6.838;2024-01-07T02:37:31;8.20;65.70
27492;DHT22;14927;51.210;6.838;2024-01-07T02:40:15;8.20;65.80
27492;DHT22;14927;51.210;6.838;2024-01-07T02:43:00;8.10;65.90
27492;DHT22;14927;51.210;6.838;2024-01-07T02:45:44;8.20;66.10
27492;DHT22;14927;51.210;6.838;2024-01-07T02:48:29;8.10;66.20
27492;DHT22;14927;51.210;6.838;2024-01-07T02:51:14;8.10;66.20
27492;DHT22;14927;51.210;6.838;2024-01-07T02:53:58;8.10;66.30
27492;DHT22;14927;51.210;6.838;2024-01-07T02:56:43;8.10;66.30
27492;DHT22;14927;51.210;6.838;2024-01-07T02:59:28;8.10;66.30
27492;DHT22;14927;51.210;6.838;2024-01-07T03:02:12;8.20;66.50
27492;DHT22;14927;51.210;6.838;2024-01-07T03:04:57;8.10;66.50
27492;DHT22;14927;51.210;6.838;2024-01-07T03:07:41;8.10;66.50
27492;DHT22;14927;51.210;6.838;2024-01-07T03:10:26;8.10;66.60
27492;DHT22;14927;51.210;6.838;2024-01-07T03:13:11;8.10;66.50
27492;DHT22;14927;51.210;6.838;2024-01-07T03:15:56;8.10;66.50
27492;DHT22;14927;51.210;6.838;2024-01-07T03:18:40;8.20;66.60
27492;DHT22;14927;51.210;6.838;2024-01-07T03:21:25;8.20;66.50
27492;DHT22;14927;51.210;6.838;2024-01-07T03:24:10;8.30;66.60
27492;DHT22;14927;51.210;6.838;2024-01-07T03:26:55;8.00;66.50
27492;DHT22;14927;51.210;6.838;2024-01-07T03:29:40;8.00;66.50
27492;DHT22;14927;51.210;6.838;2024-01-07T03:32:24;8.00;66.50
27492;DHT22;14927;51.210;6.838;2024-01-07T03:35:09;8.00;66.40
27492;DHT22;14927;51.210;6.838;2024-01-07T03:37:53;8.00;66.40
27492;DHT22;14927;51.210;6.838;2024-01-07T03:40:38;8.20;66.60
27492;DHT22;14927;51.210;6.838;2024-01-07T03:43:22;8.00;66.30
27492;DHT22;14927;51.210;6.838;2024-01-07T03:46:09;8.00;66.30
27492;DHT22;14927;51.210;6.838;2024-01-07T03:48:54;8.00;66.40
27492;DHT22;14927;51.210;6.838;2024-01-07T03:51:39;8.00;66.40
27492;DHT22;14927;51.210;6.838;2024-01-07T03:54:23;8.00;66.40
27492;DHT22;14927;51.210;6.838;2024-01-07T03:57:08;8.10;66.40
27492;DHT22;14927;51.210;6.838;2024-01-07T03:59:52;8.10;66.40
27492;DHT22;14927;51.210;6.838;2024-01-07T04:02:37;8.10;66.20
27492;DHT22;14927;51.210;6.838;2024-01-07T04:05:22;8.10;65.90
27492;DHT22;14927;51.210;6.838;2024-01-07T04:08:09;8.00;65.60
27492;DHT22;14927;51.210;6.838;2024-01-07T04:10:54;8.00;65.50
27492;DHT22;14927;51.210;6.838;2024-01-07T04:13:38;8.00;65.60
27492;DHT22;14927;51.210;6.838;2024-01-07T04:16:23;8.00;65.60
27492;DHT22;14927;51.210;6.838;2024-01-07T04:19:08;8.00;65.60
27492;DHT22;14927;51.210;6.838;2024-01-07T04:21:52;7.90;65.60
27492;DHT22;14927;51.210;6.838;2024-01-07T04:24:40;8.20;65.80
27492;DHT22;14927;51.210;6.838;2024-01-07T04:27:26;8.00;65.70
27492;DHT22;14927;51.210;6.838;2024-01-07T04:30:10;7.80;65.60
27492;DHT22;14927;51.210;6.838;2024-01-07T04:32:55;7.80;65.80
27492;DHT22;14927;51.210;6.838;2024-01-07T04:35:40;7.80;65.70
27492;DHT22;14927;51.210;6.838;2024-01-07T04:38:24;7.80;65.80
27492;DHT22;14927;51.210;6.838;2024-01-07T04:41:09;8.00;65.90
27492;DHT22;14927;51.210;6.838;2024-01-07T04:43:53;7.80;65.90
27492;DHT22;14927;51.210;6.838;2024-01-07T04:46:38;7.70;65.90
27492;DHT22;14927;51.210;6.838;2024-01-07T04:49:23;7.80;65.90
27492;DHT22;14927;51.210;6.838;2024-01-07T04:52:08;7.90;66.10
27492;DHT22;14927;51.210;6.838;2024-01-07T04:54:53;7.60;66.00
27492;DHT22;14927;51.210;6.838;2024-01-07T04:57:38;7.80;66.50
27492;DHT22;14927;51.210;6.838;2024-01-07T05:00:23;7.60;66.00
27492;DHT22;14927;51.210;6.838;2024-01-07T05:03:07;7.60;66.00
27492;DHT22;14927;51.210;6.838;2024-01-07T05:05:52;7.60;66.00
27492;DHT22;14927;51.210;6.838;2024-01-07T05:08:37;7.60;66.00
27492;DHT22;14927;51.210;6.838;2024-01-07T05:11:21;7.50;65.90
27492;DHT22;14927;51.210;6.838;2024-01-07T05:14:06;7.50;65.90
27492;DHT22;14927;51.210;6.838;2024-01-07T05:16:50;7.50;66.00
27492;DHT22;14927;51.210;6.838;2024-01-07T05:19:35;7.40;66.00
27492;DHT22;14927;51.210;6.838;2024-01-07T05:22:20;7.40;66.10
27492;DHT22;14927;51.210;6.838;2024-01-07T05:25:07;7.40;66.30
27492;DHT22;14927;51.210;6.838;2024-01-07T05:27:51;7.40;66.50
27492;DHT22;14927;51.210;6.838;2024-01-07T05:30:36;7.40;66.70
27492;DHT22;14927;51.210;6.838;2024-01-07T05:33:21;7.40;67.50
27492;DHT22;14927;51.210;6.838;2024-01-07T05:36:05;7.40;66.80
27492;DHT22;14927;51.210;6.838;2024-01-07T05:38:50;7.40;66.90
27492;DHT22;14927;51.210;6.838;2024-01-07T05:41:37;7.60;66.90
27492;DHT22;14927;51.210;6.838;2024-01-07T05:44:23;7.30;66.50
27492;DHT22;14927;51.210;6.838;2024-01-07T05:47:07;7.40;66.50
27492;DHT22;14927;51.210;6.838;2024-01-07T05:49:52;7.40;66.50
27492;DHT22;14927;51.210;6.838;2024-01-07T05:52:36;7.40;66.40
27492;DHT22;14927;51.210;6.838;2024-01-07T05:55:21;7.40;66.30
27492;DHT22;14927;51.210;6.838;2024-01-07T05:58:06;7.60;66.30
27492;DHT22;14927;51.210;6.838;2024-01-07T06:00:50;7.40;66.10
27492;DHT22;14927;51.210;6.838;2024-01-07T06:03:35;7.40;66.00
27492;DHT22;14927;51.210;6.838;2024-01-07T06:06:19;7.40;66.00
27492;DHT22;14927;51.210;6.838;2024-01-07T06:09:04;7.40;65.90
27492;DHT22;14927;51.210;6.838;2024-01-07T06:11:49;7.40;65.80
27492;DHT22;14927;51.210;6.838;2024-01-07T06:14:33;7.40;65.80
27492;DHT22;14927;51.210;6.838;2024-01-07T06:17:18;7.40;65.70
27492;DHT22;14927;51.210;6.838;2024-01-07T06:20:02;7.40;65.70
27492;DHT22;14927;51.210;6.838;2024-01-07T06:22:47;7.30;65.50
27492;DHT22;14927;51.210;6.838;2024-01-07T06:25:32;7.40;65.70
27492;DHT22;14927;51.210;6.838;2024-01-07T06:28:16;7.30;65.70
27492;DHT22;14927;51.210;6.838;2024-01-07T06:31:03;7.30;65.80
27492;DHT22;14927;51.210;6.838;2024-01-07T06:33:48;7.30;65.80
27492;DHT22;14927;51.210;6.838;2024-01-07T06:36:32;7.30;65.90
27492;DHT22;14927;51.210;6.838;2024-01-07T06:39:17;7.30;65.80
27492;DHT22;14927;51.210;6.838;2024-01-07T06:42:01;7.30;65.70
27492;DHT22;14927;51.210;6.838;2024-01-07T06:44:46;7.30;65.60
27492;DHT22;14927;51.210;6.838;2024-01-07T06:47:31;7.30;65.70
27492;DHT22;14927;51.210;6.838;2024-01-07T06:50:15;7.30;65.70
27492;DHT22;14927;51.210;6.838;2024-01-07T06:53:01;7.30;65.60
27492;DHT22;14927;51.210;6.838;2024-01-07T06:55:45;7.30;65.40
27492;DHT22;14927;51.210;6.838;2024-01-07T06:58:30;7.30;65.30
27492;DHT22;14927;51.210;6.838;2024-01-07T07:01:21;7.30;65.10
27492;DHT22;14927;51.210;6.838;2024-01-07T07:04:07;7.00;64.80
27492;DHT22;14927;51.210;6.838;2024-01-07T07:06:51;7.30;64.90
27492;DHT22;14927;51.210;6.838;2024-01-07T07:09:36;7.30;65.00
27492;DHT22;14927;51.210;6.838;2024-01-07T07:12:20;7.20;65.00
27492;DHT22;14927;51.210;6.838;2024-01-07T07:15:05;7.30;65.00
27492;DHT22;14927;51.210;6.838;2024-01-07T07:17:50;7.30;65.00
27492;DHT22;14927;51.210;6.838;2024-01-07T07:20:34;7.20;64.90
27492;DHT22;14927;51.210;6.838;2024-01-07T07:23:19;7.40;65.00
27492;DHT22;14927;51.210;6.838;2024-01-07T07:26:03;7.20;64.60
27492;DHT22;14927;51.210;6.838;2024-01-07T07:28:48;7.20;64.50
27492;DHT22;14927;51.210;6.838;2024-01-07T07:31:33;7.10;64.50
27492;DHT22;14927;51.210;6.838;2024-01-07T07:34:17;7.20;64.70
27492;DHT22;14927;51.210;6.838;2024-01-07T07:37:02;7.10;64.60
27492;DHT22;14927;51.210;6.838;2024-01-07T07:39:47;7.10;64.60
27492;DHT22;14927;51.210;6.838;2024-01-07T07:42:32;7.10;64.80
27492;DHT22;14927;51.210;6.838;2024-01-07T07:45:16;7.00;64.80
27492;DHT22;14927;51.210;6.838;2024-01-07T07:48:00;7.00;64.90
27492;DHT22;14927;51.210;6.838;2024-01-07T07:50:45;7.00;65.00
27492;DHT22;14927;51.210;6.838;2024-01-07T07:53:29;7.00;65.10
27492;DHT22;14927;51.210;6.838;2024-01-07T07:56:14;7.00;65.20
27492;DHT22;14927;51.210;6.838;2024-01-07T07:58:59;7.10;65.30
27492;DHT22;14927;51.210;6.838;2024-01-07T08:01:43;7.00;65.30
27492;DHT22;14927;51.210;6.838;2024-01-07T08:04:29;7.10;65.20
27492;DHT22;14927;51.210;6.838;2024-01-07T08:07:14;7.10;65.20
27492;DHT22;14927;51.210;6.838;2024-01-07T08:09:59;7.10;65.10
27492;DHT22;14927;51.210;6.838;2024-01-07T08:12:43;7.10;65.00
27492;DHT22;14927;51.210;6.838;2024-01-07T08:15:28;7.10;64.90
27492;DHT22;14927;51.210;6.838;2024-01-07T08:18:13;7.00;64.90
27492;DHT22;14927;51.210;6.838;2024-01-07T08:20:58;7.00;64.90
27492;DHT22;14927;51.210;6.838;2024-01-07T08:23:42;7.00;65.10
27492;DHT22;14927;51.210;6.838;2024-01-07T08:26:26;7.10;65.20
27492;DHT22;14927;51.210;6.838;2024-01-07T08:29:11;7.00;65.30
27492;DHT22;14927;51.210;6.838;2024-01-07T08:31:56;7.20;65.40
27492;DHT22;14927;51.210;6.838;2024-01-07T08:34:40;7.00;65.20
27492;DHT22;14927;51.210;6.838;2024-01-07T08:37:25;7.00;65.10
27492;DHT22;14927;51.210;6.838;2024-01-07T08:40:10;7.00;65.10
27492;DHT22;14927;51.210;6.838;2024-01-07T08:42:55;7.00;65.00
27492;DHT22;14927;51.210;6.838;2024-01-07T08:45:39;7.00;65.00
27492;DHT22;14927;51.210;6.838;2024-01-07T08:48:23;7.00;64.80
27492;DHT22;14927;51.210;6.838;2024-01-07T08:51:08;7.00;64.80
27492;DHT22;14927;51.210;6.838;2024-01-07T08:53:53;6.90;64.70
27492;DHT22;14927;51.210;6.838;2024-01-07T08:56:41;6.90;64.60
27492;DHT22;14927;51.210;6.838;2024-01-07T08:59:26;7.20;64.60
27492;DHT22;14927;51.210;6.838;2024-01-07T09:02:11;6.90;64.30
27492;DHT22;14927;51.210;6.838;2024-01-07T09:04:58;6.90;64.20
27492;DHT22;14927;51.210;6.838;2024-01-07T09:07:45;7.00;64.30
27492;DHT22;14927;51.210;6.838;2024-01-07T09:10:30;6.90;64.20
27492;DHT22;14927;51.210;6.838;2024-01-07T09:13:18;7.10;64.10
27492;DHT22;14927;51.210;6.838;2024-01-07T09:16:02;6.80;63.80
27492;DHT22;14927;51.210;6.838;2024-01-07T09:18:47;6.80;63.90
27492;DHT22;14927;51.210;6.838;2024-01-07T09:21:32;6.80;63.80
27492;DHT22;14927;51.210;6.838;2024-01-07T09:24:16;6.70;63.70
27492;DHT22;14927;51.210;6.838;2024-01-07T09:27:03;6.70;63.40
27492;DHT22;14927;51.210;6.838;2024-01-07T09:29:47;6.70;63.20
27492;DHT22;14927;51.210;6.838;2024-01-07T09:32:32;6.70;63.20
27492;DHT22;14927;51.210;6.838;2024-01-07T09:35:16;6.70;63.40
27492;DHT22;14927;51.210;6.838;2024-01-07T09:38:01;6.70;63.50
27492;DHT22;14927;51.210;6.838;2024-01-07T09:40:46;6.60;63.30
27492;DHT22;14927;51.210;6.838;2024-01-07T09:43:30;6.90;63.50
27492;DHT22;14927;51.210;6.838;2024-01-07T09:46:16;6.60;63.20
27492;DHT22;14927;51.210;6.838;2024-01-07T09:49:04;6.60;63.20
27492;DHT22;14927;51.210;6.838;2024-01-07T09:51:50;6.70;63.40
27492;DHT22;14927;51.210;6.838;2024-01-07T09:54:39;6.70;63.50
27492;DHT22;14927;51.210;6.838;2024-01-07T09:57:25;6.70;63.50
27492;DHT22;14927;51.210;6.838;2024-01-07T10:00:11;6.60;63.30
27492;DHT22;14927;51.210;6.838;2024-01-07T10:02:56;6.60;63.20
27492;DHT22;14927;51.210;6.838;2024-01-07T10:05:41;6.60;63.20
27492;DHT22;14927;51.210;6.838;2024-01-07T10:08:25;6.80;63.40
27492;DHT22;14927;51.210;6.838;2024-01-07T10:11:13;6.80;63.60
27492;DHT22;14927;51.210;6.838;2024-01-07T10:13:58;6.60;63.50
27492;DHT22;14927;51.210;6.838;2024-01-07T10:16:43;6.60;63.50
27492;DHT22;14927;51.210;6.838;2024-01-07T10:19:27;6.60;63.40
27492;DHT22;14927;51.210;6.838;2024-01-07T10:22:13;6.60;63.30
27492;DHT22;14927;51.210;6.838;2024-01-07T10:24:58;6.60;63.30
27492;DHT22;14927;51.210;6.838;2024-01-07T10:27:42;6.60;63.20
27492;DHT22;14927;51.210;6.838;2024-01-07T10:30:28;6.60;63.10
27492;DHT22;14927;51.210;6.838;2024-01-07T10:33:12;6.60;63.10
27492;DHT22;14927;51.210;6.838;2024-01-07T10:36:01;6.50;63.00
27492;DHT22;14927;51.210;6.838;2024-01-07T10:38:50;6.50;62.90
27492;DHT22;14927;51.210;6.838;2024-01-07T10:41:37;6.60;63.00
27492;DHT22;14927;51.210;6.838;2024-01-07T10:44:23;6.60;62.90
27492;DHT22;14927;51.210;6.838;2024-01-07T10:47:14;6.60;62.90
27492;DHT22;14927;51.210;6.838;2024-01-07T10:50:02;6.80;63.10
27492;DHT22;14927;51.210;6.838;2024-01-07T10:52:57;6.60;63.00
27492;DHT22;14927;51.210;6.838;2024-01-07T10:55:47;6.80;63.00
27492;DHT22;14927;51.210;6.838;2024-01-07T10:58:37;6.90;63.10
27492;DHT22;14927;51.210;6.838;2024-01-07T11:01:23;6.70;63.80
27492;DHT22;14927;51.210;6.838;2024-01-07T11:04:17;6.90;62.90
27492;DHT22;14927;51.210;6.838;2024-01-07T11:07:35;6.70;62.50
27492;DHT22;14927;51.210;6.838;2024-01-07T11:10:29;6.80;62.40
27492;DHT22;14927;51.210;6.838;2024-01-07T11:13:36;6.70;62.30
27492;DHT22;14927;51.210;6.838;2024-01-07T11:16:57;6.70;61.90
27492;DHT22;14927;51.210;6.838;2024-01-07T11:19:51;7.00;62.00
27492;DHT22;14927;51.210;6.838;2024-01-07T11:22:35;6.80;61.80
27492;DHT22;14927;51.210;6.838;2024-01-07T11:25:31;6.80;62.00
27492;DHT22;14927;51.210;6.838;2024-01-07T11:28:50;6.80;61.50
27492;DHT22;14927;51.210;6.838;2024-01-07T11:34:43;6.90;61.60
27492;DHT22;14927;51.210;6.838;2024-01-07T11:37:30;6.80;60.90
27492;DHT22;14927;51.210;6.838;2024-01-07T11:40:15;6.80;61.10
27492;DHT22;14927;51.210;6.838;2024-01-07T11:42:59;6.80;61.00
27492;DHT22;14927;51.210;6.838;2024-01-07T11:45:45;6.80;61.70
27492;DHT22;14927;51.210;6.838;2024-01-07T11:48:29;6.90;60.80
27492;DHT22;14927;51.210;6.838;2024-01-07T11:51:14;6.70;60.70
27492;DHT22;14927;51.210;6.838;2024-01-07T11:54:00;6.70;60.80
27492;DHT22;14927;51.210;6.838;2024-01-07T11:56:45;6.90;60.60
27492;DHT22;14927;51.210;6.838;2024-01-07T11:59:30;6.70;60.20
27492;DHT22;14927;51.210;6.838;2024-01-07T12:02:14;6.70;60.20
27492;DHT22;14927;51.210;6.838;2024-01-07T12:05:01;6.70;60.20
27492;DHT22;14927;51.210;6.838;2024-01-07T12:07:45;6.70;60.20
27492;DHT22;14927;51.210;6.838;2024-01-07T12:10:30;6.70;59.90
27492;DHT22;14927;51.210;6.838;2024-01-07T12:13:16;6.70;59.80
27492;DHT22;14927;51.210;6.838;2024-01-07T12:16:01;6.70;59.70
27492;DHT22;14927;51.210;6.838;2024-01-07T12:18:48;7.00;59.80
27492;DHT22;14927;51.210;6.838;2024-01-07T12:21:32;6.80;59.60
27492;DHT22;14927;51.210;6.838;2024-01-07T12:24:17;6.90;59.50
27492;DHT22;14927;51.210;6.838;2024-01-07T12:27:06;6.90;59.20
27492;DHT22;14927;51.210;6.838;2024-01-07T12:29:57;6.70;58.70
27492;DHT22;14927;51.210;6.838;2024-01-07T12:32:42;6.70;58.70
27492;DHT22;14927;51.210;6.838;2024-01-07T12:35:28;6.60;58.60
27492;DHT22;14927;51.210;6.838;2024-01-07T12:38:13;6.60;58.30
27492;DHT22;14927;51.210;6.838;2024-01-07T12:40:58;6.50;58.20
27492;DHT22;14927;51.210;6.838;2024-01-07T12:43:43;6.50;58.20
27492;DHT22;14927;51.210;6.838;2024-01-07T12:46:27;6.60;58.10
27492;DHT22;14927;51.210;6.838;2024-01-07T12:49:13;6.50;58.00
27492;DHT22;14927;51.210;6.838;2024-01-07T12:51:57;6.40;57.80
27492;DHT22;14927;51.210;6.838;2024-01-07T12:54:42;6.40;58.40
27492;DHT22;14927;51.210;6.838;2024-01-07T12:57:27;6.30;57.70
27492;DHT22;14927;51.210;6.838;2024-01-07T13:00:12;6.40;57.60
27492;DHT22;14927;51.210;6.838;2024-01-07T13:02:56;6.30;57.50
27492;DHT22;14927;51.210;6.838;2024-01-07T13:05:41;6.20;57.30
27492;DHT22;14927;51.210;6.838;2024-01-07T13:08:26;6.20;57.30
27492;DHT22;14927;51.210;6.838;2024-01-07T13:11:11;6.10;57.20
27492;DHT22;14927;51.210;6.838;2024-01-07T13:13:57;6.40;57.50
27492;DHT22;14927;51.210;6.838;2024-01-07T13:16:44;6.10;57.20
27492;DHT22;14927;51.210;6.838;2024-01-07T13:19:28;6.10;57.30
27492;DHT22;14927;51.210;6.838;2024-01-07T13:22:13;6.10;57.30
27492;DHT22;14927;51.210;6.838;2024-01-07T13:24:59;6.10;57.20
27492;DHT22;14927;51.210;6.838;2024-01-07T13:27:43;6.30;57.30
27492;DHT22;14927;51.210;6.838;2024-01-07T13:30:28;6.00;57.20
27492;DHT22;14927;51.210;6.838;2024-01-07T13:33:12;6.00;56.90
27492;DHT22;14927;51.210;6.838;2024-01-07T13:35:57;6.10;56.90
27492;DHT22;14927;51.210;6.838;2024-01-07T13:38:41;6.10;56.80
27492;DHT22;14927;51.210;6.838;2024-01-07T13:41:26;6.00;56.50
27492;DHT22;14927;51.210;6.838;2024-01-07T13:44:13;6.00;56.60
27492;DHT22;14927;51.210;6.838;2024-01-07T13:47:01;5.90;56.60
27492;DHT22;14927;51.210;6.838;2024-01-07T13:49:45;6.00;56.70
27492;DHT22;14927;51.210;6.838;2024-01-07T13:52:30;6.00;56.70
27492;DHT22;14927;51.210;6.838;2024-01-07T13:55:15;6.20;56.50
27492;DHT22;14927;51.210;6.838;2024-01-07T13:58:00;5.90;56.40
27492;DHT22;14927;51.210;6.838;2024-01-07T14:00:44;6.10;56.50
27492;DHT22;14927;51.210;6.838;2024-01-07T14:03:29;5.90;56.40
27492;DHT22;14927;51.210;6.838;2024-01-07T14:06:19;5.90;56.90
27492;DHT22;14927;51.210;6.838;2024-01-07T14:09:03;5.90;56.20
27492;DHT22;14927;51.210;6.838;2024-01-07T14:11:51;5.90;56.00
27492;DHT22;14927;51.210;6.838;2024-01-07T14:14:36;5.90;55.90
27492;DHT22;14927;51.210;6.838;2024-01-07T14:17:20;5.90;55.70
27492;DHT22;14927;51.210;6.838;2024-01-07T14:20:10;5.80;55.60
27492;DHT22;14927;51.210;6.838;2024-01-07T14:22:55;5.90;55.50
27492;DHT22;14927;51.210;6.838;2024-01-07T14:25:40;6.10;55.80
27492;DHT22;14927;51.210;6.838;2024-01-07T14:28:27;6.20;55.80
27492;DHT22;14927;51.210;6.838;2024-01-07T14:31:11;6.00;55.50
27492;DHT22;14927;51.210;6.838;2024-01-07T14:33:57;6.20;55.40
27492;DHT22;14927;51.210;6.838;2024-01-07T14:36:41;6.00;55.20
27492;DHT22;14927;51.210;6.838;2024-01-07T14:39:27;5.90;54.70
27492;DHT22;14927;51.210;6.838;2024-01-07T14:42:11;6.00;54.60
27492;DHT22;14927;51.210;6.838;2024-01-07T14:44:56;5.90;54.50
27492;DHT22;14927;51.210;6.838;2024-01-07T14:47:41;5.90;54.30
27492;DHT22;14927;51.210;6.838;2024-01-07T14:50:25;5.90;54.20
27492;DHT22;14927;51.210;6.838;2024-01-07T14:53:12;6.00;54.10
27492;DHT22;14927;51.210;6.838;2024-01-07T14:55:59;5.80;53.70
27492;DHT22;14927;51.210;6.838;2024-01-07T14:58:44;6.00;53.80
27492;DHT22;14927;51.210;6.838;2024-01-07T15:01:33;5.90;53.50
27492;DHT22;14927;51.210;6.838;2024-01-07T15:04:40;5.70;53.50
27492;DHT22;14927;51.210;6.838;2024-01-07T15:07:47;5.70;53.40
27492;DHT22;14927;51.210;6.838;2024-01-07T15:10:32;5.80;53.40
27492;DHT22;14927;51.210;6.838;2024-01-07T15:13:17;5.90;53.30
27492;DHT22;14927;51.210;6.838;2024-01-07T15:16:01;5.70;53.20
27492;DHT22;14927;51.210;6.838;2024-01-07T15:18:46;5.70;53.30
27492;DHT22;14927;51.210;6.838;2024-01-07T15:21:31;5.70;53.30
27492;DHT22;14927;51.210;6.838;2024-01-07T15:24:15;5.60;53.10
27492;DHT22;14927;51.210;6.838;2024-01-07T15:27:00;5.50;53.20
27492;DHT22;14927;51.210;6.838;2024-01-07T15:29:44;5.50;53.10
27492;DHT22;14927;51.210;6.838;2024-01-07T15:32:29;5.50;53.20
27492;DHT22;14927;51.210;6.838;2024-01-07T15:35:13;5.50;53.00
27492;DHT22;14927;51.210;6.838;2024-01-07T15:37:58;5.50;53.00
27492;DHT22;14927;51.210;6.838;2024-01-07T15:40:43;5.70;53.40
27492;DHT22;14927;51.210;6.838;2024-01-07T15:43:29;5.40;53.10
27492;DHT22;14927;51.210;6.838;2024-01-07T15:46:13;5.40;53.20
27492;DHT22;14927;51.210;6.838;2024-01-07T15:48:57;5.60;53.30
27492;DHT22;14927;51.210;6.838;2024-01-07T15:51:42;5.40;53.10
27492;DHT22;14927;51.210;6.838;2024-01-07T15:54:27;5.40;53.30
27492;DHT22;14927;51.210;6.838;2024-01-07T15:57:11;5.40;53.40
27492;DHT22;14927;51.210;6.838;2024-01-07T15:59:56;5.40;53.40
27492;DHT22;14927;51.210;6.838;2024-01-07T16:02:41;5.40;53.40
27492;DHT22;14927;51.210;6.838;2024-01-07T16:05:26;5.50;53.60
27492;DHT22;14927;51.210;6.838;2024-01-07T16:08:14;5.40;53.40
27492;DHT22;14927;51.210;6.838;2024-01-07T16:10:58;5.50;54.20
27492;DHT22;14927;51.210;6.838;2024-01-07T16:13:43;5.50;53.50
27492;DHT22;14927;51.210;6.838;2024-01-07T16:16:28;5.60;53.50
27492;DHT22;14927;51.210;6.838;2024-01-07T16:19:13;5.40;53.40
27492;DHT22;14927;51.210;6.838;2024-01-07T16:21:57;5.50;53.40
27492;DHT22;14927;51.210;6.838;2024-01-07T16:24:42;5.50;53.50
27492;DHT22;14927;51.210;6.838;2024-01-07T16:27:27;5.60;53.50
27492;DHT22;14927;51.210;6.838;2024-01-07T16:30:11;5.50;53.30
27492;DHT22;14927;51.210;6.838;2024-01-07T16:32:56;5.50;53.20
27492;DHT22;14927;51.210;6.838;2024-01-07T16:35:41;5.50;53.00
27492;DHT22;14927;51.210;6.838;2024-01-07T16:38:26;5.60;53.10
27492;DHT22;14927;51.210;6.838;2024-01-07T16:41:12;5.60;53.00
27492;DHT22;14927;51.210;6.838;2024-01-07T16:43:58;5.80;53.00
27492;DHT22;14927;51.210;6.838;2024-01-07T16:46:42;5.60;52.80
27492;DHT22;14927;51.210;6.838;2024-01-07T16:49:27;5.80;52.90
27492;DHT22;14927;51.210;6.838;2024-01-07T16:52:13;5.60;52.80
27492;DHT22;14927;51.210;6.838;2024-01-07T16:54:57;5.60;52.60
27492;DHT22;14927;51.210;6.838;2024-01-07T16:57:43;5.60;52.50
27492;DHT22;14927;51.210;6.838;2024-01-07T17:00:28;5.60;52.50
27492;DHT22;14927;51.210;6.838;2024-01-07T17:03:13;5.60;52.50
27492;DHT22;14927;51.210;6.838;2024-01-07T17:05:57;5.60;52.50
27492;DHT22;14927;51.210;6.838;2024-01-07T17:08:42;5.70;52.20
27492;DHT22;14927;51.210;6.838;2024-01-07T17:11:27;5.60;52.10
27492;DHT22;14927;51.210;6.838;2024-01-07T17:14:11;5.60;52.20
27492;DHT22;14927;51.210;6.838;2024-01-07T17:16:56;5.70;52.80
27492;DHT22;14927;51.210;6.838;2024-01-07T17:19:40;5.70;52.00
27492;DHT22;14927;51.210;6.838;2024-01-07T17:22:26;5.80;52.10
27492;DHT22;14927;51.210;6.838;2024-01-07T17:25:11;5.90;52.00
27492;DHT22;14927;51.210;6.838;2024-01-07T17:27:55;5.80;51.80
27492;DHT22;14927;51.210;6.838;2024-01-07T17:30:40;5.80;52.50
27492;DHT22;14927;51.210;6.838;2024-01-07T17:33:24;5.80;51.90
27492;DHT22;14927;51.210;6.838;2024-01-07T17:36:09;5.70;51.90
27492;DHT22;14927;51.210;6.838;2024-01-07T17:38:54;5.70;51.80
27492;DHT22;14927;51.210;6.838;2024-01-07T17:41:39;5.80;51.70
27492;DHT22;14927;51.210;6.838;2024-01-07T17:44:25;6.00;51.80